Time;durP1;ratioP1;P1;durP2;ratioP2;P2;SDS_P1;SDS_P2;PMS_P1;PMS_P2;Temp;Humidity;BMP_temperature;BMP_pressure;BME280_temperature;BME280_humidity;BME280_pressure;Samples;Min_cycle;Max_cycle;Signal;HPM_P1;HPM_P2
2021/01/29 00:00:07;;;;;;;0.70;0.70;;;;;;;;;;5054546;28;20228;-83
2021/01/29 00:02:33;;;;;;;0.80;0.70;;;;;;;;;;5033939;28;20182;-83
2021/01/29 00:04:59;;;;;;;1.70;0.70;;;;;;;;;;5050754;28;20193;-84
2021/01/29 00:07:25;;;;;;;0.90;0.60;;;;;;;;;;5041365;28;20471;-85
2021/01/29 00:09:51;;;;;;;0.90;0.60;;;;;;;;;;5039751;28;20442;-85
2021/01/29 00:12:17;;;;;;;0.90;0.80;;;;;;;;;;5032530;28;20190;-84
2021/01/29 00:14:43;;;;;;;1.45;0.73;;;;;;;;;;5035210;28;20197;-83
2021/01/29 00:17:09;;;;;;;1.63;0.70;;;;;;;;;;5048392;28;20215;-84
2021/01/29 00:19:35;;;;;;;3.43;0.80;;;;;;;;;;5030800;28;20198;-85
2021/01/29 00:22:01;;;;;;;8.80;0.90;;;;;;;;;;5040060;28;20436;-85
2021/01/29 00:24:27;;;;;;;0.57;0.57;;;;;;;;;;5056792;28;20536;-83
2021/01/29 00:26:53;;;;;;;0.83;0.60;;;;;;;;;;5037035;28;20451;-84
2021/01/29 00:29:19;;;;;;;0.90;0.90;;;;;;;;;;5043754;28;20529;-84
2021/01/29 00:31:45;;;;;;;1.65;0.95;;;;;;;;;;5041118;28;20750;-84
2021/01/29 00:34:11;;;;;;;2.30;0.80;;;;;;;;;;5042168;28;20185;-85
2021/01/29 00:36:37;;;;;;;0.93;0.73;;;;;;;;;;5037542;28;20479;-86
2021/01/29 00:39:04;;;;;;;1.65;0.70;;;;;;;;;;5050506;28;20340;-87
2021/01/29 00:41:30;;;;;;;0.88;0.75;;;;;;;;;;5031421;28;20193;-84
2021/01/29 00:43:56;;;;;;;0.50;0.50;;;;;;;;;;5039425;28;20189;-86
2021/01/29 00:46:22;;;;;;;0.75;0.65;;;;;;;;;;5042474;28;20423;-85
2021/01/29 00:48:48;;;;;;;0.80;0.60;;;;;;;;;;5041650;28;20268;-85
2021/01/29 00:51:15;;;;;;;0.68;0.68;;;;;;;;;;5038818;28;20448;-86
2021/01/29 00:53:41;;;;;;;0.80;0.70;;;;;;;;;;5040622;28;20185;-85
2021/01/29 00:56:07;;;;;;;1.45;0.80;;;;;;;;;;5050627;28;20205;-85
2021/01/29 00:58:33;;;;;;;0.75;0.65;;;;;;;;;;5029751;28;20205;-84
2021/01/29 01:01:00;;;;;;;1.95;0.73;;;;;;;;;;5038593;28;20182;-84
2021/01/29 01:03:26;;;;;;;1.23;0.57;;;;;;;;;;5056716;28;20438;-84
2021/01/29 01:05:53;;;;;;;2.25;0.88;;;;;;;;;;5039853;28;20186;-85
2021/01/29 01:08:19;;;;;;;1.40;1.30;;;;;;;;;;5030669;28;20190;-87
2021/01/29 01:10:45;;;;;;;2.05;0.70;;;;;;;;;;5030041;28;20194;-86
2021/01/29 01:13:11;;;;;;;0.50;0.50;;;;;;;;;;5030145;28;20654;-83
2021/01/29 01:15:37;;;;;;;1.15;0.73;;;;;;;;;;5037001;28;20504;-83
2021/01/29 01:18:05;;;;;;;2.40;0.80;;;;;;;;;;5051900;28;20216;-85
2021/01/29 01:20:31;;;;;;;9.10;1.25;;;;;;;;;;5035245;28;20472;-83
2021/01/29 01:22:58;;;;;;;0.80;0.70;;;;;;;;;;5049313;28;20189;-87
2021/01/29 01:25:24;;;;;;;0.50;0.40;;;;;;;;;;5038816;28;20188;-91
2021/01/29 01:27:54;;;;;;;1.40;0.80;;;;;;;;;;5037523;28;20178;-93
2021/01/29 01:30:22;;;;;;;0.63;0.60;;;;;;;;;;5038149;28;20185;-89
2021/01/29 01:32:48;;;;;;;2.67;0.60;;;;;;;;;;5033775;28;20226;-85
2021/01/29 01:35:15;;;;;;;0.50;0.50;;;;;;;;;;5013366;28;20186;-85
2021/01/29 01:37:41;;;;;;;0.40;0.40;;;;;;;;;;5022155;28;20317;-84
2021/01/29 01:40:08;;;;;;;0.77;0.57;;;;;;;;;;5019356;28;20217;-84
2021/01/29 01:42:34;;;;;;;0.75;0.47;;;;;;;;;;5022526;28;20416;-85
2021/01/29 01:45:00;;;;;;;0.60;0.50;;;;;;;;;;5037170;28;20177;-88
2021/01/29 01:47:29;;;;;;;0.80;0.77;;;;;;;;;;5012872;28;20270;-84
2021/01/29 01:49:58;;;;;;;0.43;0.40;;;;;;;;;;5025499;28;20202;-84
2021/01/29 01:52:27;;;;;;;1.30;0.60;;;;;;;;;;5024953;28;20166;-84
2021/01/29 01:55:05;;;;;;;1.05;0.50;;;;;;;;;;5021238;28;20182;-84
2021/01/29 01:57:32;;;;;;;0.50;0.50;;;;;;;;;;5032292;28;20194;-86
2021/01/29 01:59:59;;;;;;;1.58;0.60;;;;;;;;;;5032364;28;20295;-84
2021/01/29 02:02:27;;;;;;;0.90;0.50;;;;;;;;;;5028866;28;20228;-84
2021/01/29 02:04:54;;;;;;;2.47;0.60;;;;;;;;;;5028342;28;20551;-85
2021/01/29 02:07:27;;;;;;;0.60;0.50;;;;;;;;;;5014659;28;20178;-88
2021/01/29 02:09:54;;;;;;;0.68;0.50;;;;;;;;;;5020958;28;20213;-87
2021/01/29 02:12:20;;;;;;;0.80;0.60;;;;;;;;;;5033218;28;20194;-89
2021/01/29 02:14:46;;;;;;;0.90;0.60;;;;;;;;;;5016062;28;20193;-84
2021/01/29 02:17:22;;;;;;;0.60;0.60;;;;;;;;;;5040097;28;20193;-83
2021/01/29 02:20:03;;;;;;;0.60;0.60;;;;;;;;;;5028212;28;20452;-86
2021/01/29 02:22:44;;;;;;;0.88;0.50;;;;;;;;;;5013478;28;20254;-86
2021/01/29 02:25:26;;;;;;;1.27;0.80;;;;;;;;;;5022215;28;20228;-87
2021/01/29 02:27:53;;;;;;;1.38;0.57;;;;;;;;;;5023530;28;20174;-88
2021/01/29 02:30:38;;;;;;;1.30;0.88;;;;;;;;;;5020328;28;20186;-87
2021/01/29 02:33:23;;;;;;;0.85;0.50;;;;;;;;;;5048832;28;20225;-91
2021/01/29 02:35:58;;;;;;;0.73;0.60;;;;;;;;;;5038942;28;20185;-86
2021/01/29 02:38:30;;;;;;;1.55;0.60;;;;;;;;;;5036321;28;20277;-90
2021/01/29 02:41:05;;;;;;;0.85;0.60;;;;;;;;;;5032852;28;20189;-86
2021/01/29 02:43:49;;;;;;;2.88;0.70;;;;;;;;;;5028772;28;20178;-88
2021/01/29 02:46:28;;;;;;;3.13;0.80;;;;;;;;;;5038654;28;20174;-87
2021/01/29 02:49:08;;;;;;;1.40;0.60;;;;;;;;;;5036916;28;20253;-90
2021/01/29 02:51:34;;;;;;;1.35;0.60;;;;;;;;;;5040043;28;20170;-85
2021/01/29 02:54:04;;;;;;;0.80;0.60;;;;;;;;;;5037805;28;20567;-88
2021/01/29 02:56:35;;;;;;;1.10;0.60;;;;;;;;;;5030096;28;20456;-84
2021/01/29 02:59:04;;;;;;;0.75;0.65;;;;;;;;;;5036854;28;20667;-86
2021/01/29 03:01:39;;;;;;;1.75;0.70;;;;;;;;;;5049942;28;20185;-84
2021/01/29 03:04:09;;;;;;;0.60;0.60;;;;;;;;;;5036687;28;20197;-83
2021/01/29 03:06:47;;;;;;;1.83;0.70;;;;;;;;;;5043151;28;20174;-85
2021/01/29 03:09:20;;;;;;;0.75;0.70;;;;;;;;;;5047185;28;20245;-88
2021/01/29 03:11:49;;;;;;;1.13;0.70;;;;;;;;;;5034884;28;20200;-85
2021/01/29 03:14:18;;;;;;;1.45;0.80;;;;;;;;;;5047985;28;20189;-84
2021/01/29 03:16:47;;;;;;;1.30;0.65;;;;;;;;;;5043299;28;20205;-84
2021/01/29 03:19:23;;;;;;;1.20;0.80;;;;;;;;;;5058709;28;20202;-90
2021/01/29 03:21:53;;;;;;;2.63;1.30;;;;;;;;;;5036202;28;20178;-85
2021/01/29 03:24:26;;;;;;;1.00;0.77;;;;;;;;;;5036592;28;20183;-89
2021/01/29 03:27:06;;;;;;;2.65;0.90;;;;;;;;;;5052052;28;20185;-88
2021/01/29 03:29:37;;;;;;;3.00;1.38;;;;;;;;;;5042314;28;20752;-85
2021/01/29 03:32:04;;;;;;;4.60;1.70;;;;;;;;;;5051522;28;20285;-85
2021/01/29 03:34:36;;;;;;;1.70;0.90;;;;;;;;;;5043273;28;20197;-91
2021/01/29 03:37:10;;;;;;;3.50;2.20;;;;;;;;;;5041224;28;20268;-85
2021/01/29 03:39:38;;;;;;;3.17;1.40;;;;;;;;;;5062190;28;20205;-89
2021/01/29 03:42:16;;;;;;;3.63;1.05;;;;;;;;;;5040518;28;20185;-86
2021/01/29 03:44:46;;;;;;;4.63;1.10;;;;;;;;;;5041562;28;20177;-86
2021/01/29 03:47:14;;;;;;;3.88;1.77;;;;;;;;;;5046980;28;20197;-87
2021/01/29 03:49:43;;;;;;;1.27;0.90;;;;;;;;;;5047263;28;20266;-85
2021/01/29 03:52:30;;;;;;;3.03;1.02;;;;;;;;;;5034749;28;20178;-86
2021/01/29 03:55:09;;;;;;;7.38;1.30;;;;;;;;;;5041388;28;20190;-91
2021/01/29 03:57:38;;;;;;;4.88;1.30;;;;;;;;;;5032879;28;20254;-90
2021/01/29 04:00:10;;;;;;;6.07;1.40;;;;;;;;;;5035311;28;20206;-85
2021/01/29 04:02:56;;;;;;;7.28;1.58;;;;;;;;;;5040799;28;20276;-91
2021/01/29 04:05:22;;;;;;;5.30;1.55;;;;;;;;;;5031569;28;20182;-87
2021/01/29 04:07:54;;;;;;;5.07;1.40;;;;;;;;;;5030993;28;20261;-87
2021/01/29 04:10:22;;;;;;;5.60;1.50;;;;;;;;;;5027283;28;20508;-83
2021/01/29 04:13:00;;;;;;;3.75;1.35;;;;;;;;;;5038804;28;20182;-87
2021/01/29 04:15:26;;;;;;;5.63;1.15;;;;;;;;;;5057230;28;20208;-85
2021/01/29 04:17:54;;;;;;;14.17;2.60;;;;;;;;;;5041248;28;20182;-87
2021/01/29 04:20:36;;;;;;;5.95;1.60;;;;;;;;;;5029734;28;20460;-89
2021/01/29 04:23:04;;;;;;;6.03;1.63;;;;;;;;;;5042141;28;20199;-86
2021/01/29 04:25:33;;;;;;;7.72;1.90;;;;;;;;;;5042140;28;20214;-91
2021/01/29 04:28:05;;;;;;;8.10;1.65;;;;;;;;;;5040327;28;20175;-84
2021/01/29 04:30:33;;;;;;;6.18;2.03;;;;;;;;;;5040677;28;20192;-87
2021/01/29 04:33:02;;;;;;;4.13;1.70;;;;;;;;;;5038186;28;20226;-87
2021/01/29 04:35:29;;;;;;;3.13;1.80;;;;;;;;;;5041101;28;20193;-85
2021/01/29 04:38:06;;;;;;;6.60;2.20;;;;;;;;;;5054796;28;20214;-87
2021/01/29 04:40:37;;;;;;;7.65;1.75;;;;;;;;;;5040995;28;20189;-89
2021/01/29 04:43:26;;;;;;;8.07;2.15;;;;;;;;;;5038198;28;20178;-85
2021/01/29 04:46:11;;;;;;;12.13;2.50;;;;;;;;;;5041560;28;20189;-85
2021/01/29 04:48:42;;;;;;;6.32;2.30;;;;;;;;;;5051142;28;20197;-85
2021/01/29 04:51:26;;;;;;;5.38;1.90;;;;;;;;;;5034513;28;20225;-84
2021/01/29 04:53:58;;;;;;;7.60;2.55;;;;;;;;;;5033718;28;20193;-89
2021/01/29 04:56:51;;;;;;;6.32;1.65;;;;;;;;;;5035645;28;20190;-87
2021/01/29 04:59:20;;;;;;;6.35;2.17;;;;;;;;;;4949045;28;20216;-88
2021/01/29 05:01:52;;;;;;;12.90;3.65;;;;;;;;;;4975788;28;20213;-87
2021/01/29 05:04:20;;;;;;;9.02;2.78;;;;;;;;;;4978416;28;20359;-85
2021/01/29 05:06:58;;;;;;;14.07;2.78;;;;;;;;;;4977506;28;20180;-86
2021/01/29 05:09:38;;;;;;;14.88;3.30;;;;;;;;;;4974808;28;20208;-84
2021/01/29 05:12:04;;;;;;;7.65;2.67;;;;;;;;;;4972132;28;20262;-86
2021/01/29 05:14:55;;;;;;;11.70;2.93;;;;;;;;;;4956927;28;20220;-87
2021/01/29 05:17:40;;;;;;;9.75;2.58;;;;;;;;;;4869655;29;20448;-87
2021/01/29 05:20:24;;;;;;;9.63;2.65;;;;;;;;;;4884893;29;20210;-85
2021/01/29 05:22:52;;;;;;;14.43;4.00;;;;;;;;;;4869041;29;20223;-88
2021/01/29 05:25:30;;;;;;;9.85;2.97;;;;;;;;;;4886579;29;20183;-87
2021/01/29 05:28:15;;;;;;;10.05;2.80;;;;;;;;;;4871596;29;20191;-87
2021/01/29 05:30:46;;;;;;;10.68;2.20;;;;;;;;;;4885615;29;20203;-86
2021/01/29 05:33:36;;;;;;;8.75;2.30;;;;;;;;;;4889066;29;20244;-88
2021/01/29 05:36:14;;;;;;;15.60;3.25;;;;;;;;;;4911624;28;20259;-87
2021/01/29 05:38:42;;;;;;;12.48;3.35;;;;;;;;;;4978894;28;21041;-85
2021/01/29 05:41:14;;;;;;;8.05;2.80;;;;;;;;;;4979628;28;20192;-83
2021/01/29 05:43:57;;;;;;;8.90;2.42;;;;;;;;;;4974486;28;20190;-85
2021/01/29 05:46:26;;;;;;;11.73;3.67;;;;;;;;;;4980384;28;20200;-86
2021/01/29 05:49:11;;;;;;;12.07;3.50;;;;;;;;;;4981576;28;20215;-87
2021/01/29 05:51:46;;;;;;;10.48;2.72;;;;;;;;;;4980879;28;20200;-87
2021/01/29 05:54:30;;;;;;;10.30;2.60;;;;;;;;;;5011212;28;20189;-85
2021/01/29 05:57:23;;;;;;;8.05;2.70;;;;;;;;;;5054364;28;20216;-85
2021/01/29 05:59:54;;;;;;;9.48;3.50;;;;;;;;;;4973022;28;20223;-84
2021/01/29 06:02:39;;;;;;;11.55;3.75;;;;;;;;;;4979356;28;20355;-90
2021/01/29 06:05:23;;;;;;;10.43;2.42;;;;;;;;;;4971156;28;20192;-86
2021/01/29 06:08:27;;;;;;;10.13;3.03;;;;;;;;;;4971590;28;20192;-86
2021/01/29 06:10:59;;;;;;;8.55;2.60;;;;;;;;;;4922368;29;20198;-88
2021/01/29 06:13:31;;;;;;;7.80;2.80;;;;;;;;;;4913486;29;20211;-87
2021/01/29 06:16:09;;;;;;;17.23;3.58;;;;;;;;;;4922944;29;20193;-88
2021/01/29 06:18:44;;;;;;;6.60;2.35;;;;;;;;;;4921066;29;20233;-86
2021/01/29 06:21:25;;;;;;;10.27;2.42;;;;;;;;;;4920423;29;20264;-84
2021/01/29 06:24:10;;;;;;;9.30;2.65;;;;;;;;;;4924134;29;20213;-87
2021/01/29 06:26:38;;;;;;;7.45;2.00;;;;;;;;;;4919960;29;20181;-86
2021/01/29 06:29:11;;;;;;;8.10;2.15;;;;;;;;;;4923367;29;20241;-84
2021/01/29 06:31:56;;;;;;;8.45;2.75;;;;;;;;;;4918985;29;20304;-86
2021/01/29 06:34:40;;;;;;;12.48;2.53;;;;;;;;;;4925791;29;20182;-85
2021/01/29 06:37:18;;;;;;;15.85;3.45;;;;;;;;;;4967930;28;20199;-85
2021/01/29 06:40:03;;;;;;;12.82;2.90;;;;;;;;;;4975313;28;20275;-86
2021/01/29 06:42:35;;;;;;;13.55;4.80;;;;;;;;;;5023844;28;20202;-87
2021/01/29 06:45:01;;;;;;;7.45;2.42;;;;;;;;;;5037516;28;20181;-88
2021/01/29 06:47:39;;;;;;;15.65;2.80;;;;;;;;;;5045435;28;20245;-85
2021/01/29 06:50:27;;;;;;;13.25;3.28;;;;;;;;;;5032510;28;20212;-84
2021/01/29 06:52:59;;;;;;;7.97;3.05;;;;;;;;;;5030036;28;20210;-87
2021/01/29 06:55:52;;;;;;;10.27;2.58;;;;;;;;;;5043064;28;20235;-85
2021/01/29 06:58:57;;;;;;;8.35;2.40;;;;;;;;;;5041575;28;20257;-84
2021/01/29 07:01:38;;;;;;;11.57;2.53;;;;;;;;;;4935735;29;20204;-82
2021/01/29 07:04:22;;;;;;;12.40;2.10;;;;;;;;;;4941415;29;20213;-85
2021/01/29 07:06:48;;;;;;;8.70;2.85;;;;;;;;;;4927084;29;20192;-83
2021/01/29 07:09:20;;;;;;;12.13;2.40;;;;;;;;;;4942035;29;20204;-83
2021/01/29 07:12:00;;;;;;;12.77;2.70;;;;;;;;;;4940457;29;20465;-84
2021/01/29 07:14:47;;;;;;;9.35;2.50;;;;;;;;;;4920982;29;20449;-85
2021/01/29 07:17:27;;;;;;;7.50;2.50;;;;;;;;;;4943648;29;20262;-85
2021/01/29 07:20:12;;;;;;;6.80;2.60;;;;;;;;;;4942709;29;20248;-84
2021/01/29 07:22:56;;;;;;;13.30;3.00;;;;;;;;;;4943048;29;20679;-84
2021/01/29 07:25:22;;;;;;;11.38;3.60;;;;;;;;;;4934733;29;20670;-87
2021/01/29 07:28:06;;;;;;;8.60;2.00;;;;;;;;;;4935582;29;20177;-86
2021/01/29 07:30:42;;;;;;;10.18;3.38;;;;;;;;;;4926426;29;20457;-85
2021/01/29 07:33:27;;;;;;;10.77;2.63;;;;;;;;;;5033456;28;20279;-84
2021/01/29 07:35:56;;;;;;;9.95;2.90;;;;;;;;;;5017927;28;20191;-86
2021/01/29 07:38:37;;;;;;;6.45;2.00;;;;;;;;;;5031752;28;20212;-84
2021/01/29 07:41:22;;;;;;;8.50;2.50;;;;;;;;;;5039892;28;20246;-85
2021/01/29 07:43:48;;;;;;;8.52;2.75;;;;;;;;;;5022300;28;20611;-85
2021/01/29 07:46:24;;;;;;;9.70;3.03;;;;;;;;;;5041900;28;20193;-89
2021/01/29 07:49:01;;;;;;;6.65;2.35;;;;;;;;;;5043944;28;20189;-86
2021/01/29 07:51:27;;;;;;;6.70;2.78;;;;;;;;;;5036455;28;20217;-88
2021/01/29 07:54:05;;;;;;;6.65;2.78;;;;;;;;;;5015803;28;20183;-87
2021/01/29 07:56:34;;;;;;;4.78;1.95;;;;;;;;;;5015428;28;20670;-87
2021/01/29 07:59:03;;;;;;;6.35;2.58;;;;;;;;;;5034434;28;20236;-87
2021/01/29 08:01:48;;;;;;;3.40;1.92;;;;;;;;;;5018108;28;20194;-84
2021/01/29 08:04:35;;;;;;;10.32;3.33;;;;;;;;;;5027316;28;20185;-85
2021/01/29 08:07:07;;;;;;;10.45;4.13;;;;;;;;;;5036128;28;20186;-88
2021/01/29 08:09:39;;;;;;;14.43;3.13;;;;;;;;;;5025471;28;20220;-88
2021/01/29 08:12:07;;;;;;;8.23;2.58;;;;;;;;;;5021398;28;20664;-84
2021/01/29 08:14:42;;;;;;;7.45;2.42;;;;;;;;;;5038205;28;20188;-87
2021/01/29 08:17:27;;;;;;;10.38;2.75;;;;;;;;;;5029790;28;20185;-86
2021/01/29 08:20:00;;;;;;;7.95;2.97;;;;;;;;;;5037365;28;20202;-88
2021/01/29 08:22:35;;;;;;;8.88;2.00;;;;;;;;;;5042985;28;20202;-88
2021/01/29 08:25:13;;;;;;;7.47;2.47;;;;;;;;;;5043439;28;20196;-86
2021/01/29 08:27:50;;;;;;;8.07;2.55;;;;;;;;;;5042706;28;20186;-87
2021/01/29 08:30:26;;;;;;;11.50;2.45;;;;;;;;;;5034296;28;20181;-88
2021/01/29 08:32:55;;;;;;;11.77;2.28;;;;;;;;;;5033395;28;20225;-88
2021/01/29 08:35:27;;;;;;;7.95;2.50;;;;;;;;;;5047025;28;20182;-87
2021/01/29 08:38:09;;;;;;;8.65;2.55;;;;;;;;;;5036793;28;20178;-87
2021/01/29 08:40:35;;;;;;;9.13;2.80;;;;;;;;;;5039556;28;20205;-88
2021/01/29 08:43:20;;;;;;;13.13;2.67;;;;;;;;;;5050084;28;20562;-87
2021/01/29 08:45:48;;;;;;;9.38;2.30;;;;;;;;;;5039939;28;20215;-82
2021/01/29 08:48:33;;;;;;;6.05;2.65;;;;;;;;;;5052934;28;20678;-87
2021/01/29 08:51:18;;;;;;;10.80;4.00;;;;;;;;;;5053207;28;20185;-87
2021/01/29 08:53:50;;;;;;;8.63;2.22;;;;;;;;;;5034946;28;20208;-88
2021/01/29 08:56:35;;;;;;;14.93;3.83;;;;;;;;;;5043369;28;20325;-89
2021/01/29 08:59:03;;;;;;;11.90;2.75;;;;;;;;;;5028992;28;20261;-89
2021/01/29 09:01:29;;;;;;;8.07;3.28;;;;;;;;;;5041116;28;20300;-88
2021/01/29 09:03:59;;;;;;;10.13;2.80;;;;;;;;;;5037423;28;20179;-88
2021/01/29 09:06:28;;;;;;;7.82;2.47;;;;;;;;;;5039166;28;20455;-88
2021/01/29 09:08:58;;;;;;;9.52;4.00;;;;;;;;;;5037509;28;20272;-86
2021/01/29 09:11:34;;;;;;;11.45;3.20;;;;;;;;;;5038084;28;20189;-87
2021/01/29 09:14:02;;;;;;;14.32;5.80;;;;;;;;;;5035599;28;20252;-87
2021/01/29 09:16:31;;;;;;;13.80;3.88;;;;;;;;;;5042240;28;20198;-87
2021/01/29 09:19:03;;;;;;;8.38;2.83;;;;;;;;;;5042480;28;20561;-86
2021/01/29 09:21:35;;;;;;;18.48;3.50;;;;;;;;;;5036215;28;20205;-87
2021/01/29 09:24:11;;;;;;;13.25;3.13;;;;;;;;;;5033381;28;20188;-87
2021/01/29 09:26:49;;;;;;;13.07;5.30;;;;;;;;;;5027067;28;20178;-87
2021/01/29 09:29:15;;;;;;;12.55;2.95;;;;;;;;;;5027218;28;20257;-87
2021/01/29 09:31:42;;;;;;;16.88;4.18;;;;;;;;;;5033911;28;20230;-87
2021/01/29 09:34:10;;;;;;;9.05;3.00;;;;;;;;;;5042044;28;20186;-84
2021/01/29 09:36:40;;;;;;;12.55;2.90;;;;;;;;;;5039833;28;20209;-87
2021/01/29 09:39:12;;;;;;;13.52;2.80;;;;;;;;;;5055311;28;20202;-85
2021/01/29 09:41:48;;;;;;;13.65;3.22;;;;;;;;;;5036263;28;21866;-87
2021/01/29 09:44:20;;;;;;;18.70;3.78;;;;;;;;;;5038718;28;20188;-87
2021/01/29 09:46:47;;;;;;;11.57;3.80;;;;;;;;;;5038752;28;20184;-87
2021/01/29 09:49:23;;;;;;;9.70;3.47;;;;;;;;;;5031287;28;20182;-86
2021/01/29 09:51:57;;;;;;;12.00;3.47;;;;;;;;;;5040349;28;20192;-87
2021/01/29 09:54:23;;;;;;;11.48;3.05;;;;;;;;;;5037976;28;20205;-85
2021/01/29 09:57:01;;;;;;;11.98;3.67;;;;;;;;;;5037249;28;20682;-87
2021/01/29 09:59:47;;;;;;;10.50;3.25;;;;;;;;;;5041734;28;20209;-83
2021/01/29 10:02:36;;;;;;;11.93;4.57;;;;;;;;;;5026757;28;20173;-85
2021/01/29 10:05:16;;;;;;;9.32;2.75;;;;;;;;;;4953508;29;20200;-85
2021/01/29 10:08:02;;;;;;;11.50;3.75;;;;;;;;;;4949345;29;20208;-87
2021/01/29 10:10:42;;;;;;;14.25;3.35;;;;;;;;;;4889837;29;20242;-84
2021/01/29 10:13:19;;;;;;;13.60;4.15;;;;;;;;;;4888796;29;20213;-84
2021/01/29 10:15:47;;;;;;;14.00;3.55;;;;;;;;;;4881108;29;20210;-86
2021/01/29 10:18:17;;;;;;;10.73;3.22;;;;;;;;;;4899303;29;20205;-84
2021/01/29 10:20:45;;;;;;;9.02;2.60;;;;;;;;;;4901566;29;20190;-85
2021/01/29 10:23:19;;;;;;;11.93;3.28;;;;;;;;;;4886756;29;20222;-83
2021/01/29 10:26:04;;;;;;;14.82;3.30;;;;;;;;;;4886577;29;20190;-86
2021/01/29 10:28:46;;;;;;;9.65;3.13;;;;;;;;;;4876762;29;20186;-84
2021/01/29 10:31:12;;;;;;;16.20;3.92;;;;;;;;;;4889192;29;20396;-87
2021/01/29 10:33:40;;;;;;;10.30;2.90;;;;;;;;;;4881880;29;20184;-90
2021/01/29 10:36:07;;;;;;;10.50;4.38;;;;;;;;;;4896572;29;20198;-90
2021/01/29 10:38:42;;;;;;;10.13;3.03;;;;;;;;;;4894218;29;20187;-89
2021/01/29 10:41:17;;;;;;;14.88;3.30;;;;;;;;;;4883367;29;20194;-90
2021/01/29 10:43:48;;;;;;;16.52;4.15;;;;;;;;;;4957666;28;20256;-88
2021/01/29 10:46:20;;;;;;;20.33;4.63;;;;;;;;;;4980498;28;20188;-88
2021/01/29 10:48:49;;;;;;;10.05;2.92;;;;;;;;;;5040595;28;20194;-86
2021/01/29 10:51:18;;;;;;;17.73;5.57;;;;;;;;;;5038038;28;20204;-87
2021/01/29 10:53:44;;;;;;;14.13;3.28;;;;;;;;;;5039905;28;20656;-85
2021/01/29 10:56:15;;;;;;;18.15;3.47;;;;;;;;;;5037999;28;20269;-88
2021/01/29 10:58:53;;;;;;;10.90;2.67;;;;;;;;;;5039396;28;20235;-89
2021/01/29 11:01:38;;;;;;;9.13;2.50;;;;;;;;;;5040239;28;20178;-89
2021/01/29 11:04:08;;;;;;;18.60;4.30;;;;;;;;;;5029337;28;20174;-90
2021/01/29 11:06:39;;;;;;;8.85;2.58;;;;;;;;;;5038910;28;20178;-87
2021/01/29 11:09:07;;;;;;;10.73;2.95;;;;;;;;;;5052261;28;20185;-88
2021/01/29 11:11:41;;;;;;;9.65;2.80;;;;;;;;;;5052816;28;20209;-87
2021/01/29 11:14:10;;;;;;;12.05;3.25;;;;;;;;;;5039935;28;20181;-87
2021/01/29 11:16:44;;;;;;;11.43;2.55;;;;;;;;;;5030456;28;20174;-87
2021/01/29 11:19:18;;;;;;;9.48;3.47;;;;;;;;;;5030975;28;20197;-84
2021/01/29 11:21:49;;;;;;;8.20;2.70;;;;;;;;;;5041452;28;20182;-85
2021/01/29 11:24:25;;;;;;;9.90;3.05;;;;;;;;;;5056110;28;20221;-85
2021/01/29 11:27:10;;;;;;;7.60;2.28;;;;;;;;;;5040078;28;20198;-87
2021/01/29 11:29:36;;;;;;;11.18;3.58;;;;;;;;;;5033343;28;20257;-88
2021/01/29 11:32:22;;;;;;;14.67;5.13;;;;;;;;;;5030837;28;20249;-86
2021/01/29 11:34:53;;;;;;;7.10;2.05;;;;;;;;;;5040903;28;20528;-86
2021/01/29 11:37:24;;;;;;;5.47;2.13;;;;;;;;;;5032331;28;20624;-85
2021/01/29 11:39:52;;;;;;;10.95;2.42;;;;;;;;;;5041445;28;20213;-86
2021/01/29 11:42:30;;;;;;;7.63;1.95;;;;;;;;;;5041789;28;20269;-83
2021/01/29 11:45:01;;;;;;;6.18;1.80;;;;;;;;;;5041104;28;20180;-86
2021/01/29 11:47:30;;;;;;;9.63;2.70;;;;;;;;;;5047894;28;20647;-83
2021/01/29 11:50:02;;;;;;;12.10;2.85;;;;;;;;;;5028566;28;20210;-83
2021/01/29 11:52:38;;;;;;;6.25;2.15;;;;;;;;;;5031661;28;21147;-83
2021/01/29 11:55:08;;;;;;;9.65;2.40;;;;;;;;;;5030326;28;20194;-84
2021/01/29 11:57:46;;;;;;;8.30;2.40;;;;;;;;;;5035676;28;20194;-86
2021/01/29 12:00:25;;;;;;;9.38;3.30;;;;;;;;;;5036866;28;20392;-82
2021/01/29 12:03:06;;;;;;;8.93;2.22;;;;;;;;;;5053460;28;20181;-82
2021/01/29 12:05:53;;;;;;;13.75;2.85;;;;;;;;;;5050244;28;20714;-86
2021/01/29 12:08:38;;;;;;;13.02;2.70;;;;;;;;;;5034843;28;20269;-85
2021/01/29 12:11:12;;;;;;;15.75;3.38;;;;;;;;;;5041633;28;20177;-82
2021/01/29 12:13:53;;;;;;;14.52;6.78;;;;;;;;;;5025738;28;20408;-81
2021/01/29 12:16:21;;;;;;;11.35;2.10;;;;;;;;;;5031312;28;20189;-83
2021/01/29 12:18:50;;;;;;;8.13;2.40;;;;;;;;;;5039210;28;20197;-84
2021/01/29 12:21:25;;;;;;;6.38;3.33;;;;;;;;;;5031641;28;20205;-83
2021/01/29 12:24:04;;;;;;;5.95;2.30;;;;;;;;;;5035317;28;20188;-85
2021/01/29 12:26:43;;;;;;;10.93;4.35;;;;;;;;;;5035376;28;20212;-83
2021/01/29 12:29:25;;;;;;;6.93;3.40;;;;;;;;;;5050511;28;20169;-83
2021/01/29 12:32:04;;;;;;;12.10;4.28;;;;;;;;;;5053942;28;20248;-85
2021/01/29 12:34:37;;;;;;;6.95;2.40;;;;;;;;;;5039745;28;20655;-82
2021/01/29 12:37:17;;;;;;;17.38;4.75;;;;;;;;;;5034479;28;20202;-84
2021/01/29 12:39:52;;;;;;;12.10;3.47;;;;;;;;;;5039565;28;20217;-83
2021/01/29 12:42:25;;;;;;;13.32;3.53;;;;;;;;;;5037517;28;20196;-83
2021/01/29 12:45:01;;;;;;;10.23;3.42;;;;;;;;;;5037562;28;20197;-81
2021/01/29 12:47:36;;;;;;;7.82;3.30;;;;;;;;;;5033914;28;20182;-87
2021/01/29 12:50:21;;;;;;;9.63;2.35;;;;;;;;;;5037440;28;20201;-86
2021/01/29 12:52:53;;;;;;;7.95;2.13;;;;;;;;;;5063247;28;20205;-86
2021/01/29 12:55:31;;;;;;;9.88;2.42;;;;;;;;;;5036153;28;20212;-87
2021/01/29 12:58:09;;;;;;;9.65;5.07;;;;;;;;;;5040515;28;20280;-90
2021/01/29 13:00:40;;;;;;;13.07;5.85;;;;;;;;;;5039554;28;20255;-87
2021/01/29 13:03:06;;;;;;;9.57;2.35;;;;;;;;;;5050653;28;20189;-89
2021/01/29 13:05:41;;;;;;;7.53;2.25;;;;;;;;;;5045337;28;20233;-88
2021/01/29 13:08:07;;;;;;;15.25;3.22;;;;;;;;;;5036416;28;20185;-87
2021/01/29 13:10:40;;;;;;;17.67;3.25;;;;;;;;;;5037468;28;20185;-86
2021/01/29 13:13:16;;;;;;;11.57;2.80;;;;;;;;;;5025479;28;20183;-90
2021/01/29 13:15:56;;;;;;;6.03;2.17;;;;;;;;;;5038852;28;20241;-84
2021/01/29 13:18:31;;;;;;;7.30;2.88;;;;;;;;;;5040503;28;20653;-86
2021/01/29 13:21:05;;;;;;;11.70;2.88;;;;;;;;;;5056658;28;20639;-86
2021/01/29 13:23:31;;;;;;;7.65;2.35;;;;;;;;;;5043684;28;20181;-85
2021/01/29 13:26:03;;;;;;;9.27;2.53;;;;;;;;;;5028509;28;20680;-86
2021/01/29 13:28:30;;;;;;;6.85;2.63;;;;;;;;;;5039352;28;20448;-85
2021/01/29 13:31:10;;;;;;;11.27;2.95;;;;;;;;;;5042478;28;20174;-83
2021/01/29 13:33:44;;;;;;;11.77;2.70;;;;;;;;;;5037388;28;20182;-84
2021/01/29 13:36:18;;;;;;;10.27;2.25;;;;;;;;;;5051161;28;20276;-84
2021/01/29 13:38:44;;;;;;;5.65;1.90;;;;;;;;;;5037573;28;20273;-86
2021/01/29 13:41:13;;;;;;;8.40;1.90;;;;;;;;;;5038338;28;20223;-86
2021/01/29 13:43:41;;;;;;;4.82;1.67;;;;;;;;;;5040773;28;20195;-85
2021/01/29 13:46:17;;;;;;;13.15;3.28;;;;;;;;;;5035184;28;20524;-84
2021/01/29 13:48:43;;;;;;;6.35;2.35;;;;;;;;;;5038925;28;20284;-86
2021/01/29 13:51:23;;;;;;;4.70;1.50;;;;;;;;;;5033559;28;20205;-85
2021/01/29 13:53:49;;;;;;;7.72;3.10;;;;;;;;;;5051109;28;20185;-88
2021/01/29 13:56:36;;;;;;;9.17;3.03;;;;;;;;;;5037820;28;20273;-87
2021/01/29 13:59:02;;;;;;;11.25;7.50;;;;;;;;;;5048208;28;20479;-83
2021/01/29 14:01:52;;;;;;;10.70;1.83;;;;;;;;;;5040239;28;20197;-85
2021/01/29 14:04:21;;;;;;;5.88;2.05;;;;;;;;;;5020937;28;20816;-84
2021/01/29 14:06:47;;;;;;;7.32;3.00;;;;;;;;;;5034398;28;20234;-88
2021/01/29 14:09:15;;;;;;;7.07;2.05;;;;;;;;;;5026024;28;20182;-83
2021/01/29 14:11:47;;;;;;;7.72;2.30;;;;;;;;;;5032816;28;20213;-87
2021/01/29 14:14:13;;;;;;;9.68;1.48;;;;;;;;;;5043658;28;20615;-87
2021/01/29 14:16:43;;;;;;;8.07;2.40;;;;;;;;;;5037055;28;20612;-86
2021/01/29 14:19:14;;;;;;;5.65;2.05;;;;;;;;;;5029616;28;20221;-86
2021/01/29 14:21:59;;;;;;;9.98;2.65;;;;;;;;;;5040050;28;20184;-89
2021/01/29 14:24:25;;;;;;;6.93;1.65;;;;;;;;;;5039578;28;20193;-85
2021/01/29 14:27:00;;;;;;;13.18;2.60;;;;;;;;;;5037396;28;20201;-87
2021/01/29 14:29:35;;;;;;;6.63;2.50;;;;;;;;;;5044651;28;20262;-87
2021/01/29 14:32:20;;;;;;;5.45;1.88;;;;;;;;;;5018047;28;20222;-87
2021/01/29 14:34:51;;;;;;;4.30;1.83;;;;;;;;;;4998613;28;20258;-89
2021/01/29 14:37:20;;;;;;;8.85;2.28;;;;;;;;;;4994012;28;20198;-87
2021/01/29 14:40:05;;;;;;;9.38;2.50;;;;;;;;;;5018261;28;20595;-89
2021/01/29 14:42:34;;;;;;;7.40;1.80;;;;;;;;;;5000092;28;20555;-87
2021/01/29 14:45:22;;;;;;;3.85;1.60;;;;;;;;;;5022267;28;20197;-87
2021/01/29 14:48:03;;;;;;;5.97;2.28;;;;;;;;;;5020667;28;20178;-88
2021/01/29 14:50:35;;;;;;;4.47;1.50;;;;;;;;;;5001572;28;20186;-89
2021/01/29 14:53:08;;;;;;;12.43;1.98;;;;;;;;;;5002772;28;20193;-84
2021/01/29 14:55:41;;;;;;;4.00;1.60;;;;;;;;;;5015498;28;20182;-85
2021/01/29 14:58:08;;;;;;;4.18;2.20;;;;;;;;;;4995143;28;20250;-86
2021/01/29 15:00:38;;;;;;;5.95;2.28;;;;;;;;;;4998292;28;20577;-88
2021/01/29 15:03:10;;;;;;;6.93;1.92;;;;;;;;;;5001676;28;20182;-89
2021/01/29 15:05:38;;;;;;;2.65;1.40;;;;;;;;;;5012964;28;20186;-90
2021/01/29 15:08:05;;;;;;;6.93;1.60;;;;;;;;;;5020471;28;20206;-87
2021/01/29 15:10:33;;;;;;;9.00;3.28;;;;;;;;;;5003960;28;20191;-86
2021/01/29 15:13:00;;;;;;;1.90;1.20;;;;;;;;;;5016014;28;20186;-88
2021/01/29 15:15:26;;;;;;;4.72;1.30;;;;;;;;;;5018952;28;20784;-82